sensor_id;sensor_type;location;lat;lon;timestamp;P1;durP1;ratioP1;P2;durP2;ratioP2
17420;SDS011;8828;48.800;9.540;2023-03-01T00:01:32;14.27;;;6.83;;
17420;SDS011;8828;48.800;9.540;2023-03-01T00:04:00;12.30;;;5.67;;
17420;SDS011;8828;48.800;9.540;2023-03-01T00:06:28;10.87;;;6.13;;
17420;SDS011;8828;48.800;9.540;2023-03-01T00:08:56;12.03;;;6.67;;
17420;SDS011;8828;48.800;9.540;2023-03-01T00:11:25;11.57;;;6.13;;
17420;SDS011;8828;48.800;9.540;2023-03-01T00:13:55;10.13;;;6.00;;
17420;SDS011;8828;48.800;9.540;2023-03-01T00:16:25;13.27;;;6.57;;
17420;SDS011;8828;48.800;9.540;2023-03-01T00:18:56;12.83;;;6.03;;
17420;SDS011;8828;48.800;9.540;2023-03-01T00:21:25;10.97;;;6.33;;
17420;SDS011;8828;48.800;9.540;2023-03-01T00:23:53;13.53;;;7.00;;
17420;SDS011;8828;48.800;9.540;2023-03-01T00:26:22;9.67;;;6.10;;
17420;SDS011;8828;48.800;9.540;2023-03-01T00:28:51;14.17;;;5.87;;
17420;SDS011;8828;48.800;9.540;2023-03-01T00:31:19;9.33;;;5.20;;
17420;SDS011;8828;48.800;9.540;2023-03-01T00:33:53;10.27;;;6.07;;
17420;SDS011;8828;48.800;9.540;2023-03-01T00:36:23;9.33;;;6.13;;
17420;SDS011;8828;48.800;9.540;2023-03-01T00:38:52;10.07;;;6.53;;
17420;SDS011;8828;48.800;9.540;2023-03-01T00:41:20;13.40;;;6.53;;
17420;SDS011;8828;48.800;9.540;2023-03-01T00:43:49;11.53;;;6.43;;
17420;SDS011;8828;48.800;9.540;2023-03-01T00:46:18;12.93;;;7.13;;
17420;SDS011;8828;48.800;9.540;2023-03-01T00:48:48;9.97;;;5.83;;
17420;SDS011;8828;48.800;9.540;2023-03-01T00:51:18;10.77;;;6.00;;
17420;SDS011;8828;48.800;9.540;2023-03-01T00:53:51;14.27;;;7.03;;
17420;SDS011;8828;48.800;9.540;2023-03-01T00:56:20;11.30;;;6.40;;
17420;SDS011;8828;48.800;9.540;2023-03-01T00:58:48;13.23;;;6.10;;
17420;SDS011;8828;48.800;9.540;2023-03-01T01:01:17;10.67;;;6.50;;
17420;SDS011;8828;48.800;9.540;2023-03-01T01:03:47;12.83;;;6.57;;
17420;SDS011;8828;48.800;9.540;2023-03-01T01:06:19;11.37;;;5.87;;
17420;SDS011;8828;48.800;9.540;2023-03-01T01:08:50;13.90;;;6.70;;
17420;SDS011;8828;48.800;9.540;2023-03-01T01:11:18;11.57;;;6.40;;
17420;SDS011;8828;48.800;9.540;2023-03-01T01:13:47;14.43;;;7.10;;
17420;SDS011;8828;48.800;9.540;2023-03-01T01:16:16;11.30;;;6.23;;
17420;SDS011;8828;48.800;9.540;2023-03-01T01:18:46;12.13;;;6.67;;
17420;SDS011;8828;48.800;9.540;2023-03-01T01:21:15;13.33;;;6.67;;
17420;SDS011;8828;48.800;9.540;2023-03-01T01:23:46;11.43;;;6.07;;
17420;SDS011;8828;48.800;9.540;2023-03-01T01:26:15;11.70;;;6.73;;
17420;SDS011;8828;48.800;9.540;2023-03-01T01:28:44;12.70;;;6.70;;
17420;SDS011;8828;48.800;9.540;2023-03-01T01:31:13;10.40;;;6.43;;
17420;SDS011;8828;48.800;9.540;2023-03-01T01:33:41;15.17;;;6.47;;
17420;SDS011;8828;48.800;9.540;2023-03-01T01:36:09;13.73;;;6.43;;
17420;SDS011;8828;48.800;9.540;2023-03-01T01:38:38;12.73;;;6.83;;
17420;SDS011;8828;48.800;9.540;2023-03-01T01:41:09;13.27;;;6.87;;
17420;SDS011;8828;48.800;9.540;2023-03-01T01:43:39;11.20;;;6.90;;
17420;SDS011;8828;48.800;9.540;2023-03-01T01:46:12;13.57;;;6.77;;
17420;SDS011;8828;48.800;9.540;2023-03-01T01:48:49;11.30;;;7.10;;
17420;SDS011;8828;48.800;9.540;2023-03-01T01:51:22;14.97;;;6.90;;
17420;SDS011;8828;48.800;9.540;2023-03-01T01:54:06;10.67;;;6.70;;
17420;SDS011;8828;48.800;9.540;2023-03-01T01:56:38;12.00;;;6.90;;
17420;SDS011;8828;48.800;9.540;2023-03-01T01:59:10;15.27;;;6.93;;
17420;SDS011;8828;48.800;9.540;2023-03-01T02:01:38;12.47;;;6.57;;
17420;SDS011;8828;48.800;9.540;2023-03-01T02:04:06;13.80;;;7.03;;
17420;SDS011;8828;48.800;9.540;2023-03-01T02:06:36;12.00;;;6.93;;
17420;SDS011;8828;48.800;9.540;2023-03-01T02:09:12;13.03;;;6.73;;
17420;SDS011;8828;48.800;9.540;2023-03-01T02:11:44;14.03;;;6.80;;
17420;SDS011;8828;48.800;9.540;2023-03-01T02:14:12;11.07;;;5.83;;
17420;SDS011;8828;48.800;9.540;2023-03-01T02:16:40;11.30;;;6.67;;
17420;SDS011;8828;48.800;9.540;2023-03-01T02:19:08;13.90;;;7.10;;
17420;SDS011;8828;48.800;9.540;2023-03-01T02:21:46;14.37;;;7.57;;
17420;SDS011;8828;48.800;9.540;2023-03-01T02:24:25;14.10;;;7.17;;
17420;SDS011;8828;48.800;9.540;2023-03-01T02:27:00;14.37;;;7.17;;
17420;SDS011;8828;48.800;9.540;2023-03-01T02:29:29;13.20;;;7.43;;
17420;SDS011;8828;48.800;9.540;2023-03-01T02:31:58;16.47;;;7.67;;
17420;SDS011;8828;48.800;9.540;2023-03-01T02:34:29;12.10;;;6.97;;
17420;SDS011;8828;48.800;9.540;2023-03-01T02:37:00;13.90;;;7.17;;
17420;SDS011;8828;48.800;9.540;2023-03-01T02:39:31;14.07;;;7.40;;
17420;SDS011;8828;48.800;9.540;2023-03-01T02:42:04;14.97;;;7.43;;
17420;SDS011;8828;48.800;9.540;2023-03-01T02:44:34;13.17;;;7.70;;
17420;SDS011;8828;48.800;9.540;2023-03-01T02:47:02;13.47;;;7.07;;
17420;SDS011;8828;48.800;9.540;2023-03-01T02:49:33;19.93;;;8.33;;
17420;SDS011;8828;48.800;9.540;2023-03-01T02:52:21;15.77;;;7.50;;
17420;SDS011;8828;48.800;9.540;2023-03-01T02:54:56;15.03;;;7.67;;
17420;SDS011;8828;48.800;9.540;2023-03-01T02:57:28;12.60;;;7.00;;
17420;SDS011;8828;48.800;9.540;2023-03-01T02:59:59;16.40;;;7.13;;
17420;SDS011;8828;48.800;9.540;2023-03-01T03:02:33;14.13;;;6.80;;
17420;SDS011;8828;48.800;9.540;2023-03-01T03:05:06;13.63;;;7.67;;
17420;SDS011;8828;48.800;9.540;2023-03-01T03:07:37;14.17;;;7.47;;
17420;SDS011;8828;48.800;9.540;2023-03-01T03:10:08;12.60;;;7.30;;
17420;SDS011;8828;48.800;9.540;2023-03-01T03:12:38;13.70;;;7.23;;
17420;SDS011;8828;48.800;9.540;2023-03-01T03:15:09;13.33;;;8.13;;
17420;SDS011;8828;48.800;9.540;2023-03-01T03:17:39;14.70;;;7.77;;
17420;SDS011;8828;48.800;9.540;2023-03-01T03:20:11;17.70;;;8.13;;
17420;SDS011;8828;48.800;9.540;2023-03-01T03:22:45;14.73;;;7.63;;
17420;SDS011;8828;48.800;9.540;2023-03-01T03:25:14;15.73;;;8.03;;
17420;SDS011;8828;48.800;9.540;2023-03-01T03:27:42;12.57;;;7.30;;
17420;SDS011;8828;48.800;9.540;2023-03-01T03:30:13;14.47;;;7.67;;
17420;SDS011;8828;48.800;9.540;2023-03-01T03:32:44;16.17;;;9.03;;
17420;SDS011;8828;48.800;9.540;2023-03-01T03:35:18;13.37;;;6.97;;
17420;SDS011;8828;48.800;9.540;2023-03-01T03:37:47;17.57;;;8.17;;
17420;SDS011;8828;48.800;9.540;2023-03-01T03:40:30;15.70;;;7.37;;
17420;SDS011;8828;48.800;9.540;2023-03-01T03:42:59;25.33;;;7.77;;
17420;SDS011;8828;48.800;9.540;2023-03-01T03:45:28;15.97;;;7.83;;
17420;SDS011;8828;48.800;9.540;2023-03-01T03:47:59;13.40;;;7.53;;
17420;SDS011;8828;48.800;9.540;2023-03-01T03:50:27;14.17;;;8.20;;
17420;SDS011;8828;48.800;9.540;2023-03-01T03:52:56;19.20;;;8.30;;
17420;SDS011;8828;48.800;9.540;2023-03-01T03:55:24;14.67;;;7.87;;
17420;SDS011;8828;48.800;9.540;2023-03-01T03:57:57;12.83;;;7.20;;
17420;SDS011;8828;48.800;9.540;2023-03-01T04:00:29;14.33;;;8.20;;
17420;SDS011;8828;48.800;9.540;2023-03-01T04:02:57;15.93;;;8.03;;
17420;SDS011;8828;48.800;9.540;2023-03-01T04:05:25;14.13;;;8.00;;
17420;SDS011;8828;48.800;9.540;2023-03-01T04:07:54;12.63;;;7.20;;
17420;SDS011;8828;48.800;9.540;2023-03-01T04:10:28;14.10;;;7.97;;
17420;SDS011;8828;48.800;9.540;2023-03-01T04:12:57;17.33;;;8.13;;
17420;SDS011;8828;48.800;9.540;2023-03-01T04:15:25;15.20;;;8.53;;
17420;SDS011;8828;48.800;9.540;2023-03-01T04:17:55;17.77;;;8.50;;
17420;SDS011;8828;48.800;9.540;2023-03-01T04:20:26;14.20;;;8.33;;
17420;SDS011;8828;48.800;9.540;2023-03-01T04:22:58;13.67;;;7.73;;
17420;SDS011;8828;48.800;9.540;2023-03-01T04:25:37;15.63;;;7.57;;
17420;SDS011;8828;48.800;9.540;2023-03-01T04:28:06;14.87;;;7.83;;
17420;SDS011;8828;48.800;9.540;2023-03-01T04:30:34;15.23;;;7.80;;
17420;SDS011;8828;48.800;9.540;2023-03-01T04:33:05;14.30;;;7.60;;
17420;SDS011;8828;48.800;9.540;2023-03-01T04:35:34;16.03;;;8.40;;
17420;SDS011;8828;48.800;9.540;2023-03-01T04:38:02;16.93;;;8.30;;
17420;SDS011;8828;48.800;9.540;2023-03-01T04:40:31;19.23;;;8.50;;
17420;SDS011;8828;48.800;9.540;2023-03-01T04:42:59;16.13;;;7.77;;
17420;SDS011;8828;48.800;9.540;2023-03-01T04:45:27;14.67;;;7.63;;
17420;SDS011;8828;48.800;9.540;2023-03-01T04:47:55;16.83;;;7.60;;
17420;SDS011;8828;48.800;9.540;2023-03-01T04:50:25;17.20;;;8.67;;
17420;SDS011;8828;48.800;9.540;2023-03-01T04:52:54;22.20;;;8.67;;
17420;SDS011;8828;48.800;9.540;2023-03-01T04:55:25;15.27;;;8.20;;
17420;SDS011;8828;48.800;9.540;2023-03-01T04:57:53;17.03;;;8.90;;
17420;SDS011;8828;48.800;9.540;2023-03-01T05:00:22;17.77;;;8.67;;
17420;SDS011;8828;48.800;9.540;2023-03-01T05:02:51;15.43;;;8.60;;
17420;SDS011;8828;48.800;9.540;2023-03-01T05:05:21;18.03;;;9.00;;
17420;SDS011;8828;48.800;9.540;2023-03-01T05:07:54;15.13;;;8.17;;
17420;SDS011;8828;48.800;9.540;2023-03-01T05:10:23;15.83;;;7.77;;
17420;SDS011;8828;48.800;9.540;2023-03-01T05:12:51;15.83;;;8.77;;
17420;SDS011;8828;48.800;9.540;2023-03-01T05:15:19;14.87;;;8.27;;
17420;SDS011;8828;48.800;9.540;2023-03-01T05:17:52;17.90;;;9.10;;
17420;SDS011;8828;48.800;9.540;2023-03-01T05:20:21;17.23;;;9.23;;
17420;SDS011;8828;48.800;9.540;2023-03-01T05:22:50;18.80;;;8.20;;
17420;SDS011;8828;48.800;9.540;2023-03-01T05:25:20;18.53;;;8.93;;
17420;SDS011;8828;48.800;9.540;2023-03-01T05:27:48;36.93;;;19.00;;
17420;SDS011;8828;48.800;9.540;2023-03-01T05:30:16;30.23;;;14.93;;
17420;SDS011;8828;48.800;9.540;2023-03-01T05:32:45;19.37;;;10.33;;
17420;SDS011;8828;48.800;9.540;2023-03-01T05:35:15;15.63;;;8.63;;
17420;SDS011;8828;48.800;9.540;2023-03-01T05:37:45;16.07;;;8.87;;
17420;SDS011;8828;48.800;9.540;2023-03-01T05:40:15;17.00;;;8.33;;
17420;SDS011;8828;48.800;9.540;2023-03-01T05:42:47;15.00;;;8.33;;
17420;SDS011;8828;48.800;9.540;2023-03-01T05:45:16;17.37;;;8.83;;
17420;SDS011;8828;48.800;9.540;2023-03-01T05:47:45;14.70;;;8.30;;
17420;SDS011;8828;48.800;9.540;2023-03-01T05:50:14;16.77;;;9.07;;
17420;SDS011;8828;48.800;9.540;2023-03-01T05:52:46;16.77;;;9.10;;
17420;SDS011;8828;48.800;9.540;2023-03-01T05:55:15;22.70;;;9.80;;
17420;SDS011;8828;48.800;9.540;2023-03-01T05:57:43;19.90;;;10.27;;
17420;SDS011;8828;48.800;9.540;2023-03-01T06:00:14;19.60;;;9.87;;
17420;SDS011;8828;48.800;9.540;2023-03-01T06:02:44;13.80;;;7.83;;
17420;SDS011;8828;48.800;9.540;2023-03-01T06:05:13;18.67;;;9.37;;
17420;SDS011;8828;48.800;9.540;2023-03-01T06:07:41;17.97;;;9.73;;
17420;SDS011;8828;48.800;9.540;2023-03-01T06:10:10;15.57;;;9.03;;
17420;SDS011;8828;48.800;9.540;2023-03-01T06:12:39;14.13;;;8.87;;
17420;SDS011;8828;48.800;9.540;2023-03-01T06:15:09;19.43;;;10.87;;
17420;SDS011;8828;48.800;9.540;2023-03-01T06:17:40;18.03;;;9.93;;
17420;SDS011;8828;48.800;9.540;2023-03-01T06:20:10;16.87;;;8.90;;
17420;SDS011;8828;48.800;9.540;2023-03-01T06:22:40;17.20;;;8.47;;
17420;SDS011;8828;48.800;9.540;2023-03-01T06:25:09;18.40;;;8.87;;
17420;SDS011;8828;48.800;9.540;2023-03-01T06:27:38;20.83;;;9.50;;
17420;SDS011;8828;48.800;9.540;2023-03-01T06:30:07;20.30;;;9.40;;
17420;SDS011;8828;48.800;9.540;2023-03-01T06:32:36;17.87;;;8.57;;
17420;SDS011;8828;48.800;9.540;2023-03-01T06:35:10;18.47;;;9.73;;
17420;SDS011;8828;48.800;9.540;2023-03-01T06:37:39;20.93;;;9.47;;
17420;SDS011;8828;48.800;9.540;2023-03-01T06:40:08;23.30;;;10.67;;
17420;SDS011;8828;48.800;9.540;2023-03-01T06:42:40;19.90;;;9.73;;
17420;SDS011;8828;48.800;9.540;2023-03-01T06:45:09;22.03;;;9.87;;
17420;SDS011;8828;48.800;9.540;2023-03-01T06:47:38;21.47;;;10.50;;
17420;SDS011;8828;48.800;9.540;2023-03-01T06:50:06;17.63;;;9.53;;
17420;SDS011;8828;48.800;9.540;2023-03-01T06:52:36;19.67;;;10.27;;
17420;SDS011;8828;48.800;9.540;2023-03-01T06:55:05;18.57;;;9.10;;
17420;SDS011;8828;48.800;9.540;2023-03-01T06:57:34;20.97;;;11.00;;
17420;SDS011;8828;48.800;9.540;2023-03-01T07:00:02;28.10;;;10.93;;
17420;SDS011;8828;48.800;9.540;2023-03-01T07:02:30;19.70;;;10.13;;
17420;SDS011;8828;48.800;9.540;2023-03-01T07:04:59;18.37;;;9.90;;
17420;SDS011;8828;48.800;9.540;2023-03-01T07:07:26;14.83;;;8.60;;
17420;SDS011;8828;48.800;9.540;2023-03-01T07:09:56;14.63;;;8.97;;
17420;SDS011;8828;48.800;9.540;2023-03-01T07:12:24;15.30;;;9.50;;
17420;SDS011;8828;48.800;9.540;2023-03-01T07:14:52;19.27;;;9.33;;
17420;SDS011;8828;48.800;9.540;2023-03-01T07:17:20;20.57;;;9.17;;
17420;SDS011;8828;48.800;9.540;2023-03-01T07:19:47;28.17;;;9.47;;
17420;SDS011;8828;48.800;9.540;2023-03-01T07:22:15;20.27;;;9.57;;
17420;SDS011;8828;48.800;9.540;2023-03-01T07:24:43;17.70;;;9.57;;
17420;SDS011;8828;48.800;9.540;2023-03-01T07:27:13;16.50;;;8.70;;
17420;SDS011;8828;48.800;9.540;2023-03-01T07:29:41;15.73;;;8.60;;
17420;SDS011;8828;48.800;9.540;2023-03-01T07:32:09;17.63;;;8.10;;
17420;SDS011;8828;48.800;9.540;2023-03-01T07:34:38;17.93;;;9.37;;
17420;SDS011;8828;48.800;9.540;2023-03-01T07:37:05;15.53;;;8.80;;
17420;SDS011;8828;48.800;9.540;2023-03-01T07:39:33;15.43;;;8.53;;
17420;SDS011;8828;48.800;9.540;2023-03-01T07:42:01;16.13;;;8.57;;
17420;SDS011;8828;48.800;9.540;2023-03-01T07:44:31;20.33;;;9.47;;
17420;SDS011;8828;48.800;9.540;2023-03-01T07:46:59;16.33;;;9.40;;
17420;SDS011;8828;48.800;9.540;2023-03-01T07:49:27;21.77;;;10.87;;
17420;SDS011;8828;48.800;9.540;2023-03-01T07:51:55;19.87;;;10.43;;
17420;SDS011;8828;48.800;9.540;2023-03-01T07:54:23;16.47;;;9.00;;
17420;SDS011;8828;48.800;9.540;2023-03-01T07:56:52;18.87;;;9.90;;
17420;SDS011;8828;48.800;9.540;2023-03-01T07:59:20;19.20;;;9.70;;
17420;SDS011;8828;48.800;9.540;2023-03-01T08:01:51;18.23;;;9.23;;
17420;SDS011;8828;48.800;9.540;2023-03-01T08:04:19;19.80;;;9.17;;
17420;SDS011;8828;48.800;9.540;2023-03-01T08:06:47;16.23;;;8.43;;
17420;SDS011;8828;48.800;9.540;2023-03-01T08:09:14;15.70;;;9.70;;
17420;SDS011;8828;48.800;9.540;2023-03-01T08:11:42;16.03;;;8.70;;
17420;SDS011;8828;48.800;9.540;2023-03-01T08:14:10;17.13;;;9.57;;
17420;SDS011;8828;48.800;9.540;2023-03-01T08:16:38;18.63;;;9.53;;
17420;SDS011;8828;48.800;9.540;2023-03-01T08:19:08;18.57;;;8.90;;
17420;SDS011;8828;48.800;9.540;2023-03-01T08:21:38;18.27;;;9.93;;
17420;SDS011;8828;48.800;9.540;2023-03-01T08:24:06;20.10;;;10.27;;
17420;SDS011;8828;48.800;9.540;2023-03-01T08:26:36;19.50;;;10.30;;
17420;SDS011;8828;48.800;9.540;2023-03-01T08:29:04;17.07;;;9.53;;
17420;SDS011;8828;48.800;9.540;2023-03-01T08:31:33;15.17;;;9.03;;
17420;SDS011;8828;48.800;9.540;2023-03-01T08:34:03;23.63;;;13.07;;
17420;SDS011;8828;48.800;9.540;2023-03-01T08:36:36;29.57;;;14.17;;
17420;SDS011;8828;48.800;9.540;2023-03-01T08:39:09;17.53;;;9.47;;
17420;SDS011;8828;48.800;9.540;2023-03-01T08:41:38;18.07;;;9.90;;
17420;SDS011;8828;48.800;9.540;2023-03-01T08:44:07;18.60;;;9.80;;
17420;SDS011;8828;48.800;9.540;2023-03-01T08:46:36;18.17;;;10.23;;
17420;SDS011;8828;48.800;9.540;2023-03-01T08:49:06;18.07;;;10.00;;
17420;SDS011;8828;48.800;9.540;2023-03-01T08:51:36;16.47;;;10.23;;
17420;SDS011;8828;48.800;9.540;2023-03-01T08:54:05;19.37;;;10.53;;
17420;SDS011;8828;48.800;9.540;2023-03-01T08:56:34;17.97;;;9.83;;
17420;SDS011;8828;48.800;9.540;2023-03-01T08:59:02;17.70;;;10.53;;
17420;SDS011;8828;48.800;9.540;2023-03-01T09:01:30;17.13;;;9.93;;
17420;SDS011;8828;48.800;9.540;2023-03-01T09:03:57;18.40;;;10.50;;
17420;SDS011;8828;48.800;9.540;2023-03-01T09:06:26;18.03;;;10.77;;
17420;SDS011;8828;48.800;9.540;2023-03-01T09:08:55;19.00;;;10.63;;
17420;SDS011;8828;48.800;9.540;2023-03-01T09:11:23;20.60;;;11.40;;
17420;SDS011;8828;48.800;9.540;2023-03-01T09:13:51;19.70;;;11.33;;
17420;SDS011;8828;48.800;9.540;2023-03-01T09:16:20;15.77;;;10.53;;
17420;SDS011;8828;48.800;9.540;2023-03-01T09:18:49;18.50;;;11.03;;
17420;SDS011;8828;48.800;9.540;2023-03-01T09:21:19;15.50;;;10.73;;
17420;SDS011;8828;48.800;9.540;2023-03-01T09:24:05;17.60;;;12.20;;
17420;SDS011;8828;48.800;9.540;2023-03-01T09:26:34;22.67;;;13.90;;
17420;SDS011;8828;48.800;9.540;2023-03-01T09:29:02;16.33;;;11.57;;
17420;SDS011;8828;48.800;9.540;2023-03-01T09:31:30;16.67;;;10.88;;
17420;SDS011;8828;48.800;9.540;2023-03-01T09:33:58;17.13;;;10.70;;
17420;SDS011;8828;48.800;9.540;2023-03-01T09:36:25;13.32;;;10.25;;
17420;SDS011;8828;48.800;9.540;2023-03-01T09:38:55;14.48;;;10.35;;
17420;SDS011;8828;48.800;9.540;2023-03-01T09:44:18;15.38;;;10.55;;
17420;SDS011;8828;48.800;9.540;2023-03-01T09:46:52;16.77;;;10.55;;
17420;SDS011;8828;48.800;9.540;2023-03-01T09:49:20;11.88;;;9.52;;
17420;SDS011;8828;48.800;9.540;2023-03-01T09:52:00;15.57;;;10.70;;
17420;SDS011;8828;48.800;9.540;2023-03-01T09:54:33;13.98;;;10.27;;
17420;SDS011;8828;48.800;9.540;2023-03-01T09:57:09;15.75;;;10.55;;
17420;SDS011;8828;48.800;9.540;2023-03-01T09:59:48;16.27;;;11.48;;
17420;SDS011;8828;48.800;9.540;2023-03-01T10:02:39;15.20;;;10.27;;
17420;SDS011;8828;48.800;9.540;2023-03-01T10:05:19;15.27;;;10.18;;
17420;SDS011;8828;48.800;9.540;2023-03-01T10:08:00;14.93;;;10.20;;
17420;SDS011;8828;48.800;9.540;2023-03-01T10:10:43;15.70;;;10.65;;
17420;SDS011;8828;48.800;9.540;2023-03-01T10:13:15;15.32;;;10.57;;
17420;SDS011;8828;48.800;9.540;2023-03-01T10:15:47;14.45;;;10.43;;
17420;SDS011;8828;48.800;9.540;2023-03-01T10:18:21;15.02;;;10.98;;
17420;SDS011;8828;48.800;9.540;2023-03-01T10:20:52;12.00;;;9.90;;
17420;SDS011;8828;48.800;9.540;2023-03-01T10:23:23;14.20;;;10.65;;
17420;SDS011;8828;48.800;9.540;2023-03-01T10:25:57;14.02;;;10.70;;
17420;SDS011;8828;48.800;9.540;2023-03-01T10:28:44;13.82;;;9.65;;
17420;SDS011;8828;48.800;9.540;2023-03-01T10:31:22;11.82;;;9.55;;
17420;SDS011;8828;48.800;9.540;2023-03-01T10:33:55;14.63;;;10.02;;
17420;SDS011;8828;48.800;9.540;2023-03-01T10:36:25;13.98;;;10.75;;
17420;SDS011;8828;48.800;9.540;2023-03-01T10:38:53;13.52;;;9.23;;
17420;SDS011;8828;48.800;9.540;2023-03-01T10:41:24;11.32;;;9.30;;
17420;SDS011;8828;48.800;9.540;2023-03-01T10:43:56;11.82;;;9.07;;
17420;SDS011;8828;48.800;9.540;2023-03-01T10:46:27;11.00;;;9.38;;
17420;SDS011;8828;48.800;9.540;2023-03-01T10:51:47;12.23;;;9.18;;
17420;SDS011;8828;48.800;9.540;2023-03-01T10:54:17;12.68;;;9.70;;
17420;SDS011;8828;48.800;9.540;2023-03-01T10:56:47;10.82;;;9.60;;
17420;SDS011;8828;48.800;9.540;2023-03-01T10:59:24;12.55;;;9.50;;
17420;SDS011;8828;48.800;9.540;2023-03-01T11:02:01;11.80;;;9.38;;
17420;SDS011;8828;48.800;9.540;2023-03-01T11:04:55;11.43;;;9.07;;
17420;SDS011;8828;48.800;9.540;2023-03-01T11:07:28;12.30;;;9.43;;
17420;SDS011;8828;48.800;9.540;2023-03-01T11:09:56;10.70;;;9.20;;
17420;SDS011;8828;48.800;9.540;2023-03-01T11:12:24;12.05;;;8.90;;
17420;SDS011;8828;48.800;9.540;2023-03-01T11:14:57;12.57;;;9.70;;
17420;SDS011;8828;48.800;9.540;2023-03-01T11:17:27;11.85;;;8.93;;
17420;SDS011;8828;48.800;9.540;2023-03-01T11:20:06;12.77;;;9.50;;
17420;SDS011;8828;48.800;9.540;2023-03-01T11:22:47;11.38;;;8.75;;
17420;SDS011;8828;48.800;9.540;2023-03-01T11:25:20;13.57;;;9.30;;
17420;SDS011;8828;48.800;9.540;2023-03-01T11:27:52;10.55;;;8.40;;
17420;SDS011;8828;48.800;9.540;2023-03-01T11:30:24;12.85;;;9.07;;
17420;SDS011;8828;48.800;9.540;2023-03-01T11:33:04;11.20;;;8.80;;
17420;SDS011;8828;48.800;9.540;2023-03-01T11:35:41;11.23;;;9.05;;
17420;SDS011;8828;48.800;9.540;2023-03-01T11:38:15;10.20;;;8.48;;
17420;SDS011;8828;48.800;9.540;2023-03-01T11:40:49;13.32;;;9.85;;
17420;SDS011;8828;48.800;9.540;2023-03-01T11:43:29;11.85;;;9.40;;
17420;SDS011;8828;48.800;9.540;2023-03-01T11:46:13;12.52;;;10.07;;
17420;SDS011;8828;48.800;9.540;2023-03-01T11:49:04;13.27;;;9.45;;
17420;SDS011;8828;48.800;9.540;2023-03-01T11:51:46;12.23;;;9.15;;
17420;SDS011;8828;48.800;9.540;2023-03-01T11:54:23;13.00;;;9.75;;
17420;SDS011;8828;48.800;9.540;2023-03-01T11:57:03;14.40;;;9.30;;
17420;SDS011;8828;48.800;9.540;2023-03-01T11:59:44;13.93;;;10.43;;
17420;SDS011;8828;48.800;9.540;2023-03-01T12:05:54;13.43;;;9.45;;
17420;SDS011;8828;48.800;9.540;2023-03-01T12:08:40;11.60;;;9.15;;
17420;SDS011;8828;48.800;9.540;2023-03-01T12:11:17;13.43;;;8.93;;
17420;SDS011;8828;48.800;9.540;2023-03-01T12:14:20;12.13;;;9.02;;
17420;SDS011;8828;48.800;9.540;2023-03-01T12:17:09;16.20;;;9.82;;
17420;SDS011;8828;48.800;9.540;2023-03-01T12:19:51;11.45;;;9.10;;
17420;SDS011;8828;48.800;9.540;2023-03-01T12:22:40;16.25;;;9.65;;
17420;SDS011;8828;48.800;9.540;2023-03-01T12:25:34;11.50;;;8.88;;
17420;SDS011;8828;48.800;9.540;2023-03-01T12:28:14;14.13;;;9.15;;
17420;SDS011;8828;48.800;9.540;2023-03-01T12:31:23;12.63;;;9.27;;
17420;SDS011;8828;48.800;9.540;2023-03-01T12:34:28;12.07;;;9.20;;
17420;SDS011;8828;48.800;9.540;2023-03-01T12:37:18;12.27;;;8.88;;
17420;SDS011;8828;48.800;9.540;2023-03-01T12:40:13;12.90;;;8.75;;
17420;SDS011;8828;48.800;9.540;2023-03-01T12:43:00;12.82;;;9.43;;
17420;SDS011;8828;48.800;9.540;2023-03-01T12:45:45;13.43;;;9.82;;
17420;SDS011;8828;48.800;9.540;2023-03-01T12:48:29;13.38;;;8.40;;
17420;SDS011;8828;48.800;9.540;2023-03-01T12:51:05;13.05;;;9.73;;
17420;SDS011;8828;48.800;9.540;2023-03-01T12:53:38;11.90;;;8.43;;
17420;SDS011;8828;48.800;9.540;2023-03-01T12:56:10;12.68;;;8.70;;
17420;SDS011;8828;48.800;9.540;2023-03-01T12:58:42;13.38;;;9.05;;
17420;SDS011;8828;48.800;9.540;2023-03-01T13:01:26;15.82;;;8.77;;
17420;SDS011;8828;48.800;9.540;2023-03-01T13:04:07;13.05;;;8.95;;
17420;SDS011;8828;48.800;9.540;2023-03-01T13:06:47;12.25;;;8.18;;
17420;SDS011;8828;48.800;9.540;2023-03-01T13:09:23;11.75;;;8.60;;
17420;SDS011;8828;48.800;9.540;2023-03-01T13:11:58;12.90;;;8.10;;
17420;SDS011;8828;48.800;9.540;2023-03-01T13:14:36;13.38;;;8.52;;
17420;SDS011;8828;48.800;9.540;2023-03-01T13:17:30;13.05;;;9.15;;
17420;SDS011;8828;48.800;9.540;2023-03-01T13:20:01;10.30;;;7.25;;
17420;SDS011;8828;48.800;9.540;2023-03-01T13:22:32;11.02;;;7.93;;
17420;SDS011;8828;48.800;9.540;2023-03-01T13:25:13;10.70;;;7.53;;
17420;SDS011;8828;48.800;9.540;2023-03-01T13:27:44;13.20;;;7.78;;
17420;SDS011;8828;48.800;9.540;2023-03-01T13:39:27;12.70;;;8.82;;
17420;SDS011;8828;48.800;9.540;2023-03-01T13:41:59;12.00;;;8.37;;
17420;SDS011;8828;48.800;9.540;2023-03-01T13:44:30;15.07;;;11.10;;
17420;SDS011;8828;48.800;9.540;2023-03-01T13:47:04;11.83;;;8.10;;
17420;SDS011;8828;48.800;9.540;2023-03-01T13:49:44;14.50;;;8.57;;
17420;SDS011;8828;48.800;9.540;2023-03-01T13:52:27;14.47;;;8.83;;
17420;SDS011;8828;48.800;9.540;2023-03-01T13:55:03;13.37;;;8.77;;
17420;SDS011;8828;48.800;9.540;2023-03-01T13:57:34;11.87;;;8.43;;
17420;SDS011;8828;48.800;9.540;2023-03-01T14:00:07;13.10;;;8.33;;
17420;SDS011;8828;48.800;9.540;2023-03-01T14:03:04;10.00;;;7.57;;
17420;SDS011;8828;48.800;9.540;2023-03-01T14:05:43;11.33;;;8.43;;
17420;SDS011;8828;48.800;9.540;2023-03-01T14:08:38;13.00;;;8.40;;
17420;SDS011;8828;48.800;9.540;2023-03-01T14:14:16;12.07;;;8.73;;
17420;SDS011;8828;48.800;9.540;2023-03-01T14:17:03;14.97;;;9.03;;
17420;SDS011;8828;48.800;9.540;2023-03-01T14:19:41;13.33;;;9.17;;
17420;SDS011;8828;48.800;9.540;2023-03-01T14:22:14;14.43;;;8.37;;
17420;SDS011;8828;48.800;9.540;2023-03-01T14:24:49;12.30;;;8.20;;
17420;SDS011;8828;48.800;9.540;2023-03-01T14:27:18;12.13;;;8.17;;
17420;SDS011;8828;48.800;9.540;2023-03-01T14:29:53;12.07;;;8.90;;
17420;SDS011;8828;48.800;9.540;2023-03-01T14:32:25;13.07;;;8.30;;
17420;SDS011;8828;48.800;9.540;2023-03-01T14:34:55;11.73;;;8.17;;
17420;SDS011;8828;48.800;9.540;2023-03-01T14:37:24;13.83;;;9.20;;
17420;SDS011;8828;48.800;9.540;2023-03-01T14:39:54;12.87;;;8.73;;
17420;SDS011;8828;48.800;9.540;2023-03-01T14:42:23;15.13;;;8.87;;
17420;SDS011;8828;48.800;9.540;2023-03-01T14:44:55;14.67;;;9.23;;
17420;SDS011;8828;48.800;9.540;2023-03-01T14:47:27;13.03;;;8.50;;
17420;SDS011;8828;48.800;9.540;2023-03-01T14:49:58;14.93;;;9.60;;
17420;SDS011;8828;48.800;9.540;2023-03-01T14:52:32;24.87;;;14.57;;
17420;SDS011;8828;48.800;9.540;2023-03-01T14:55:02;13.43;;;9.00;;
17420;SDS011;8828;48.800;9.540;2023-03-01T14:57:33;13.90;;;9.23;;
17420;SDS011;8828;48.800;9.540;2023-03-01T15:00:02;14.13;;;8.50;;
17420;SDS011;8828;48.800;9.540;2023-03-01T15:02:34;14.70;;;8.87;;
17420;SDS011;8828;48.800;9.540;2023-03-01T15:05:05;13.33;;;8.47;;
17420;SDS011;8828;48.800;9.540;2023-03-01T15:07:35;12.27;;;7.77;;
17420;SDS011;8828;48.800;9.540;2023-03-01T15:10:11;14.57;;;8.47;;
17420;SDS011;8828;48.800;9.540;2023-03-01T15:12:47;16.23;;;9.30;;
17420;SDS011;8828;48.800;9.540;2023-03-01T15:15:19;13.27;;;8.37;;
17420;SDS011;8828;48.800;9.540;2023-03-01T15:18:03;16.13;;;8.33;;
17420;SDS011;8828;48.800;9.540;2023-03-01T15:20:40;13.37;;;8.63;;
17420;SDS011;8828;48.800;9.540;2023-03-01T15:23:13;13.40;;;8.80;;
17420;SDS011;8828;48.800;9.540;2023-03-01T15:25:49;16.73;;;8.87;;
17420;SDS011;8828;48.800;9.540;2023-03-01T15:28:23;13.23;;;8.40;;
17420;SDS011;8828;48.800;9.540;2023-03-01T15:30:54;14.97;;;8.53;;
17420;SDS011;8828;48.800;9.540;2023-03-01T15:36:30;13.33;;;7.83;;
17420;SDS011;8828;48.800;9.540;2023-03-01T15:39:00;16.60;;;9.70;;
17420;SDS011;8828;48.800;9.540;2023-03-01T15:41:29;16.37;;;8.80;;